Time;durP1;ratioP1;P1;durP2;ratioP2;P2;SDS_P1;SDS_P2;PMS_P1;PMS_P2;Temp;Humidity;BMP_temperature;BMP_pressure;BME280_temperature;BME280_humidity;BME280_pressure;Samples;Min_cycle;Max_cycle;Signal;HPM_P1;HPM_P2
2022/09/07 00:00:39;;;;;;;;;;;19.40;98.30;;;;;;4592640;19;19927;-24
2022/09/07 00:02:13;;;;;;;;;;;19.40;98.30;;;;;;4592258;19;19939;-25
2022/09/07 00:03:44;;;;;;;;;;;19.40;98.50;;;;;;4592270;19;19919;-25
2022/09/07 00:05:17;;;;;;;;;;;19.40;98.30;;;;;;4592219;19;19978;-23
2022/09/07 00:06:49;;;;;;;;;;;19.40;98.30;;;;;;4592915;19;19989;-24
2022/09/07 00:08:21;;;;;;;;;;;19.40;98.20;;;;;;4592243;19;19927;-28
2022/09/07 00:09:52;;;;;;;;;;;19.40;98.10;;;;;;4592301;19;19943;-29
2022/09/07 00:11:23;;;;;;;;;;;19.40;98.10;;;;;;4592511;19;19949;-24
2022/09/07 00:12:54;;;;;;;;;;;19.40;98.10;;;;;;4592441;19;19947;-26
2022/09/07 00:14:25;;;;;;;;;;;19.40;98.10;;;;;;4592126;19;19919;-28
2022/09/07 00:15:56;;;;;;;;;;;19.40;98.00;;;;;;4592276;19;19952;-24
2022/09/07 00:17:28;;;;;;;;;;;19.40;98.00;;;;;;4592597;19;19915;-25
2022/09/07 00:19:00;;;;;;;;;;;19.40;98.00;;;;;;4591958;19;19919;-27
2022/09/07 00:20:36;;;;;;;;;;;19.40;97.90;;;;;;4592127;19;19915;-24
2022/09/07 00:22:08;;;;;;;;;;;19.40;97.90;;;;;;4590441;19;19923;-25
2022/09/07 00:23:39;;;;;;;;;;;19.40;97.90;;;;;;4592215;19;19919;-25
2022/09/07 00:25:10;;;;;;;;;;;19.40;97.80;;;;;;4593947;19;19911;-25
2022/09/07 00:26:44;;;;;;;;;;;19.40;97.80;;;;;;4592583;19;19919;-27
2022/09/07 00:28:15;;;;;;;;;;;19.40;97.70;;;;;;4591410;19;19941;-27
2022/09/07 00:29:46;;;;;;;;;;;19.40;97.60;;;;;;4592035;19;20271;-27
2022/09/07 00:31:18;;;;;;;;;;;19.40;97.50;;;;;;4591815;19;19925;-24
2022/09/07 00:32:49;;;;;;;;;;;19.40;97.50;;;;;;4591585;19;19942;-27
2022/09/07 00:34:20;;;;;;;;;;;19.40;97.50;;;;;;4591711;19;19922;-23
2022/09/07 00:35:52;;;;;;;;;;;19.40;97.50;;;;;;4592276;19;19919;-25
2022/09/07 00:37:23;;;;;;;;;;;19.40;97.50;;;;;;4591614;19;20249;-26
2022/09/07 00:38:55;;;;;;;;;;;19.40;97.50;;;;;;4590370;19;19911;-23
2022/09/07 00:40:26;;;;;;;;;;;19.40;97.40;;;;;;4591858;19;19915;-26
2022/09/07 00:41:57;;;;;;;;;;;19.40;97.40;;;;;;4590468;19;20277;-27
2022/09/07 00:43:29;;;;;;;;;;;19.40;97.30;;;;;;4591837;19;19923;-24
2022/09/07 00:45:05;;;;;;;;;;;19.40;97.40;;;;;;4591718;19;19915;-25
2022/09/07 00:46:37;;;;;;;;;;;19.40;97.40;;;;;;4592184;19;19929;-23
2022/09/07 00:48:15;;;;;;;;;;;19.40;97.40;;;;;;4591347;19;19919;-26
2022/09/07 00:49:48;;;;;;;;;;;19.40;97.30;;;;;;4591612;19;19921;-23
2022/09/07 00:51:30;;;;;;;;;;;19.40;97.30;;;;;;4591355;19;19979;-26
2022/09/07 00:53:06;;;;;;;;;;;19.40;97.20;;;;;;4591450;19;19915;-25
2022/09/07 00:54:41;;;;;;;;;;;19.40;97.10;;;;;;4591819;19;19918;-24
2022/09/07 00:56:12;;;;;;;;;;;19.40;97.20;;;;;;4591177;19;19915;-26
2022/09/07 00:57:44;;;;;;;;;;;19.40;97.20;;;;;;4591136;19;20337;-23
2022/09/07 00:59:16;;;;;;;;;;;19.40;97.20;;;;;;4591929;19;19922;-26
2022/09/07 01:00:48;;;;;;;;;;;19.40;97.10;;;;;;4591078;19;19915;-22
2022/09/07 01:02:19;;;;;;;;;;;19.40;97.10;;;;;;4590030;19;19978;-24
2022/09/07 01:03:50;;;;;;;;;;;19.40;97.00;;;;;;4590630;19;19927;-23
2022/09/07 01:05:23;;;;;;;;;;;19.40;97.00;;;;;;4591372;19;20330;-24
2022/09/07 01:06:54;;;;;;;;;;;19.40;97.10;;;;;;4589855;19;20278;-25
2022/09/07 01:08:26;;;;;;;;;;;19.40;97.00;;;;;;4590548;19;20240;-26
2022/09/07 01:09:57;;;;;;;;;;;19.40;97.00;;;;;;4593236;19;19923;-23
2022/09/07 01:11:29;;;;;;;;;;;19.40;96.90;;;;;;4591618;19;19911;-28
2022/09/07 01:13:00;;;;;;;;;;;19.40;96.90;;;;;;4590802;19;19933;-24
2022/09/07 01:14:33;;;;;;;;;;;19.40;96.90;;;;;;4589743;19;19926;-24
2022/09/07 01:16:08;;;;;;;;;;;19.40;96.80;;;;;;4590395;19;20246;-24
2022/09/07 01:17:38;;;;;;;;;;;19.40;96.70;;;;;;4591714;19;19923;-25
2022/09/07 01:19:17;;;;;;;;;;;19.40;96.70;;;;;;4590693;19;19911;-26
2022/09/07 01:20:54;;;;;;;;;;;19.40;96.60;;;;;;4589535;19;20264;-25
2022/09/07 01:22:47;;;;;;;;;;;19.40;96.50;;;;;;4590435;19;20265;-23
2022/09/07 01:24:18;;;;;;;;;;;19.40;96.50;;;;;;4591030;19;19925;-26
2022/09/07 01:26:07;;;;;;;;;;;19.40;96.40;;;;;;4589839;19;19918;-27
2022/09/07 01:27:42;;;;;;;;;;;19.40;96.40;;;;;;4590447;19;19927;-26
2022/09/07 01:29:17;;;;;;;;;;;19.40;96.40;;;;;;4589528;19;19918;-23
2022/09/07 01:30:58;;;;;;;;;;;19.40;96.30;;;;;;4589379;19;19954;-27
2022/09/07 01:32:47;;;;;;;;;;;19.40;96.20;;;;;;4590474;19;19935;-26
2022/09/07 01:34:23;;;;;;;;;;;19.40;96.40;;;;;;4591059;19;19926;-24
2022/09/07 01:36:02;;;;;;;;;;;19.40;96.10;;;;;;4590768;19;19974;-24
2022/09/07 01:37:39;;;;;;;;;;;19.40;96.10;;;;;;4589089;19;19974;-22
2022/09/07 01:39:11;;;;;;;;;;;19.40;96.20;;;;;;4588277;19;19942;-27
2022/09/07 01:41:08;;;;;;;;;;;19.40;96.20;;;;;;4590433;19;19919;-26
2022/09/07 01:42:44;;;;;;;;;;;19.40;96.20;;;;;;4590465;19;19951;-24
2022/09/07 01:44:17;;;;;;;;;;;19.40;96.10;;;;;;4589561;19;19918;-25
2022/09/07 01:45:48;;;;;;;;;;;19.40;96.00;;;;;;4589119;19;20278;-28
2022/09/07 01:47:25;;;;;;;;;;;19.40;95.90;;;;;;4589018;19;19919;-25
2022/09/07 01:49:08;;;;;;;;;;;19.40;95.90;;;;;;4590168;19;19918;-27
2022/09/07 01:50:43;;;;;;;;;;;19.30;96.00;;;;;;4588109;19;19971;-25
2022/09/07 01:52:16;;;;;;;;;;;19.30;95.90;;;;;;4589424;19;19926;-24
2022/09/07 01:53:57;;;;;;;;;;;19.40;95.90;;;;;;4589100;19;19926;-26
2022/09/07 01:55:30;;;;;;;;;;;19.40;95.80;;;;;;4590044;19;20351;-27
2022/09/07 01:57:06;;;;;;;;;;;19.30;95.80;;;;;;4589568;19;19935;-28
2022/09/07 01:58:39;;;;;;;;;;;19.30;95.70;;;;;;4589129;19;20335;-27
2022/09/07 02:00:14;;;;;;;;;;;19.40;95.80;;;;;;4589294;19;19927;-25
2022/09/07 02:01:45;;;;;;;;;;;19.40;95.80;;;;;;4589403;19;19923;-26
2022/09/07 02:03:39;;;;;;;;;;;19.30;95.80;;;;;;4590187;19;19919;-25
2022/09/07 02:05:15;;;;;;;;;;;19.40;95.70;;;;;;4588378;19;20689;-26
2022/09/07 02:06:55;;;;;;;;;;;19.40;95.80;;;;;;4587880;19;19922;-25
2022/09/07 02:08:43;;;;;;;;;;;19.40;95.70;;;;;;4587940;19;20349;-26
2022/09/07 02:10:37;;;;;;;;;;;19.40;95.60;;;;;;4588179;19;20335;-24
2022/09/07 02:12:11;;;;;;;;;;;19.30;95.70;;;;;;4588346;19;19919;-25
2022/09/07 02:13:45;;;;;;;;;;;19.30;95.60;;;;;;4588239;19;20324;-25
2022/09/07 02:15:17;;;;;;;;;;;19.30;95.60;;;;;;4587895;19;19990;-25
2022/09/07 02:16:59;;;;;;;;;;;19.30;95.60;;;;;;4588004;19;19922;-26
2022/09/07 02:18:32;;;;;;;;;;;19.40;95.60;;;;;;4588112;19;19922;-25
2022/09/07 02:20:14;;;;;;;;;;;19.40;95.50;;;;;;4588136;19;20011;-25
2022/09/07 02:21:49;;;;;;;;;;;19.40;95.50;;;;;;4586867;19;19918;-23
2022/09/07 02:23:27;;;;;;;;;;;19.30;95.40;;;;;;4587822;19;20385;-24
2022/09/07 02:24:59;;;;;;;;;;;19.30;95.40;;;;;;4587624;19;20334;-24
2022/09/07 02:26:30;;;;;;;;;;;19.30;95.40;;;;;;4587667;19;19943;-26
2022/09/07 02:28:03;;;;;;;;;;;19.30;95.50;;;;;;4587385;19;19926;-29
2022/09/07 02:29:34;;;;;;;;;;;19.40;95.60;;;;;;4587705;19;19919;-23
2022/09/07 02:31:05;;;;;;;;;;;19.40;95.50;;;;;;4587819;19;19915;-27
2022/09/07 02:32:36;;;;;;;;;;;19.40;95.50;;;;;;4588062;19;19923;-27
2022/09/07 02:34:07;;;;;;;;;;;19.40;95.40;;;;;;4587684;19;19981;-24
2022/09/07 02:35:38;;;;;;;;;;;19.40;95.40;;;;;;4587472;19;19919;-25
2022/09/07 02:37:11;;;;;;;;;;;19.40;95.40;;;;;;4587815;19;19926;-25
2022/09/07 02:38:42;;;;;;;;;;;19.30;95.40;;;;;;4586827;19;19915;-24
2022/09/07 02:40:14;;;;;;;;;;;19.40;95.30;;;;;;4587653;19;19931;-26
2022/09/07 02:41:45;;;;;;;;;;;19.40;95.20;;;;;;4586605;19;19922;-24
2022/09/07 02:43:16;;;;;;;;;;;19.30;95.20;;;;;;4589663;19;19919;-27
2022/09/07 02:44:47;;;;;;;;;;;19.30;95.10;;;;;;4589612;19;19956;-28
2022/09/07 02:46:18;;;;;;;;;;;19.30;95.00;;;;;;4589451;19;19942;-24
2022/09/07 02:48:21;;;;;;;;;;;19.30;95.00;;;;;;4589455;19;19942;-25
2022/09/07 02:50:15;;;;;;;;;;;19.30;95.00;;;;;;4589878;19;19915;-24
2022/09/07 02:52:04;;;;;;;;;;;19.30;95.00;;;;;;4591904;19;19951;-24
2022/09/07 02:53:38;;;;;;;;;;;19.30;95.10;;;;;;4592141;19;19945;-31
2022/09/07 02:55:28;;;;;;;;;;;19.30;95.00;;;;;;4591768;19;19919;-26
2022/09/07 02:57:21;;;;;;;;;;;19.30;95.10;;;;;;4591906;19;19944;-25
2022/09/07 02:59:15;;;;;;;;;;;19.30;95.10;;;;;;4591951;19;19919;-28
2022/09/07 03:01:06;;;;;;;;;;;19.30;95.10;;;;;;4591990;19;19919;-24
2022/09/07 03:02:50;;;;;;;;;;;19.30;95.00;;;;;;4591535;19;19919;-25
2022/09/07 03:04:39;;;;;;;;;;;19.30;95.00;;;;;;4591499;19;19919;-27
2022/09/07 03:06:39;;;;;;;;;;;19.30;94.80;;;;;;4591776;19;20103;-25
2022/09/07 03:08:12;;;;;;;;;;;19.30;94.70;;;;;;4591167;19;19911;-22
2022/09/07 03:09:45;;;;;;;;;;;19.30;94.70;;;;;;4591411;19;20446;-24
2022/09/07 03:11:16;;;;;;;;;;;19.30;94.70;;;;;;4591327;19;19932;-24
2022/09/07 03:12:47;;;;;;;;;;;19.30;94.60;;;;;;4591550;19;20284;-25
2022/09/07 03:14:19;;;;;;;;;;;19.30;94.70;;;;;;4591627;19;20377;-26
2022/09/07 03:15:50;;;;;;;;;;;19.40;94.70;;;;;;4591359;19;19915;-24
2022/09/07 03:17:21;;;;;;;;;;;19.30;94.60;;;;;;4591471;19;19922;-22
2022/09/07 03:18:52;;;;;;;;;;;19.30;94.50;;;;;;4591428;19;19982;-25
2022/09/07 03:20:23;;;;;;;;;;;19.30;94.40;;;;;;4591269;19;19930;-26
2022/09/07 03:21:54;;;;;;;;;;;19.30;94.30;;;;;;4590147;19;19915;-27
2022/09/07 03:23:25;;;;;;;;;;;19.30;94.30;;;;;;4591446;19;19915;-24
2022/09/07 03:24:56;;;;;;;;;;;19.40;94.30;;;;;;4591183;19;19935;-23
2022/09/07 03:26:27;;;;;;;;;;;19.40;94.30;;;;;;4590757;19;19929;-23
2022/09/07 03:27:58;;;;;;;;;;;19.40;94.30;;;;;;4590516;19;19945;-23
2022/09/07 03:29:29;;;;;;;;;;;19.40;94.30;;;;;;4589643;19;20338;-28
2022/09/07 03:31:00;;;;;;;;;;;19.50;94.30;;;;;;4591357;19;20019;-24
2022/09/07 03:32:32;;;;;;;;;;;19.50;94.30;;;;;;4591018;19;19923;-25
2022/09/07 03:34:03;;;;;;;;;;;19.50;94.30;;;;;;4591057;19;20110;-25
2022/09/07 03:35:34;;;;;;;;;;;19.50;94.20;;;;;;4591256;19;19915;-25
2022/09/07 03:37:05;;;;;;;;;;;19.50;94.10;;;;;;4590965;19;19919;-25
2022/09/07 03:38:36;;;;;;;;;;;19.50;94.10;;;;;;4589435;19;19915;-25
2022/09/07 03:40:08;;;;;;;;;;;19.50;94.10;;;;;;4591582;19;19919;-23
2022/09/07 03:41:39;;;;;;;;;;;19.50;94.00;;;;;;4590977;19;19915;-26
2022/09/07 03:43:10;;;;;;;;;;;19.50;94.00;;;;;;4592754;19;19947;-27
2022/09/07 03:44:41;;;;;;;;;;;19.50;93.90;;;;;;4593021;19;19919;-27
2022/09/07 03:46:14;;;;;;;;;;;19.40;93.80;;;;;;4591927;19;19929;-27
2022/09/07 03:47:45;;;;;;;;;;;19.50;93.80;;;;;;4592573;19;19911;-24
2022/09/07 03:49:16;;;;;;;;;;;19.50;93.80;;;;;;4592849;19;19918;-25
2022/09/07 03:51:00;;;;;;;;;;;19.50;93.90;;;;;;4592920;19;19925;-25
2022/09/07 03:52:31;;;;;;;;;;;19.50;93.80;;;;;;4592738;19;20339;-26
2022/09/07 03:54:01;;;;;;;;;;;19.50;93.80;;;;;;4593132;19;19918;-28
2022/09/07 03:55:32;;;;;;;;;;;19.50;93.80;;;;;;4592719;19;19962;-27
2022/09/07 03:57:04;;;;;;;;;;;19.50;93.90;;;;;;4592837;19;19932;-23
2022/09/07 03:58:35;;;;;;;;;;;19.50;93.80;;;;;;4592886;19;19911;-24
2022/09/07 04:00:06;;;;;;;;;;;19.50;93.80;;;;;;4595030;19;19926;-23
2022/09/07 04:01:37;;;;;;;;;;;19.50;93.80;;;;;;4590048;19;19926;-26
2022/09/07 04:03:08;;;;;;;;;;;19.50;93.80;;;;;;4593003;19;19925;-25
2022/09/07 04:04:40;;;;;;;;;;;19.50;93.80;;;;;;4592825;19;19915;-24
2022/09/07 04:06:12;;;;;;;;;;;19.50;93.80;;;;;;4594543;19;19914;-28
2022/09/07 04:07:46;;;;;;;;;;;19.50;93.80;;;;;;4594313;19;19922;-26
2022/09/07 04:09:17;;;;;;;;;;;19.50;93.70;;;;;;4592751;19;19927;-28
2022/09/07 04:10:48;;;;;;;;;;;19.50;93.70;;;;;;4592890;19;19992;-26
2022/09/07 04:12:19;;;;;;;;;;;19.50;93.60;;;;;;4592362;19;19919;-24
2022/09/07 04:13:50;;;;;;;;;;;19.50;93.50;;;;;;4592468;19;19922;-22
2022/09/07 04:15:21;;;;;;;;;;;19.50;93.50;;;;;;4592548;19;19911;-22
2022/09/07 04:16:52;;;;;;;;;;;19.50;93.50;;;;;;4592340;19;19923;-25
2022/09/07 04:18:23;;;;;;;;;;;19.50;93.50;;;;;;4592250;19;20318;-25
2022/09/07 04:19:54;;;;;;;;;;;19.50;93.40;;;;;;4592368;19;19919;-27
2022/09/07 04:21:26;;;;;;;;;;;19.50;93.40;;;;;;4591463;19;19936;-26
2022/09/07 04:22:57;;;;;;;;;;;19.50;93.40;;;;;;4592252;19;20261;-25
2022/09/07 04:24:28;;;;;;;;;;;19.50;93.40;;;;;;4592239;19;19915;-25
2022/09/07 04:25:59;;;;;;;;;;;19.50;93.40;;;;;;4592794;19;19922;-27
2022/09/07 04:27:30;;;;;;;;;;;19.50;93.40;;;;;;4594365;19;20318;-24
2022/09/07 04:29:01;;;;;;;;;;;19.50;93.30;;;;;;4588497;19;20326;-24
2022/09/07 04:30:33;;;;;;;;;;;19.40;93.30;;;;;;4591943;19;20514;-25
2022/09/07 04:32:05;;;;;;;;;;;19.40;93.40;;;;;;4593044;19;19923;-24
2022/09/07 04:33:36;;;;;;;;;;;19.40;93.40;;;;;;4592887;19;19919;-24
2022/09/07 04:35:08;;;;;;;;;;;19.40;93.40;;;;;;4593716;19;19957;-24
2022/09/07 04:36:39;;;;;;;;;;;19.40;93.30;;;;;;4591741;19;19919;-26
2022/09/07 04:38:13;;;;;;;;;;;19.40;93.40;;;;;;4591236;19;19982;-27
2022/09/07 04:39:45;;;;;;;;;;;19.40;93.60;;;;;;4592014;19;19918;-28
2022/09/07 04:41:16;;;;;;;;;;;19.40;93.60;;;;;;4590958;19;19953;-27
2022/09/07 04:42:47;;;;;;;;;;;19.40;93.70;;;;;;4593682;19;19928;-26
2022/09/07 04:44:18;;;;;;;;;;;19.40;94.00;;;;;;4591534;19;19919;-26
2022/09/07 04:45:49;;;;;;;;;;;19.40;93.70;;;;;;4591946;19;19925;-26
2022/09/07 04:47:20;;;;;;;;;;;19.40;93.90;;;;;;4593921;19;19926;-26
2022/09/07 04:48:52;;;;;;;;;;;19.40;93.90;;;;;;4593569;19;19926;-24
2022/09/07 04:50:23;;;;;;;;;;;19.40;94.10;;;;;;4594236;19;20278;-27
2022/09/07 04:51:54;;;;;;;;;;;19.40;94.20;;;;;;4592849;19;19926;-22
2022/09/07 04:53:25;;;;;;;;;;;19.40;94.30;;;;;;4592218;19;19921;-28
2022/09/07 04:54:56;;;;;;;;;;;19.40;94.30;;;;;;4593672;19;19915;-25
2022/09/07 04:56:27;;;;;;;;;;;19.40;94.40;;;;;;4590680;19;19914;-25
2022/09/07 04:57:58;;;;;;;;;;;19.40;94.50;;;;;;4590135;19;19954;-24
2022/09/07 04:59:48;;;;;;;;;;;19.40;94.50;;;;;;4590771;19;19918;-26
2022/09/07 05:01:20;;;;;;;;;;;19.40;94.60;;;;;;4590920;19;19928;-28
2022/09/07 05:02:52;;;;;;;;;;;19.40;94.80;;;;;;4591724;19;19919;-27
2022/09/07 05:04:24;;;;;;;;;;;19.40;94.70;;;;;;4590889;19;19919;-27
2022/09/07 05:05:55;;;;;;;;;;;19.40;94.70;;;;;;4591209;19;19919;-26
2022/09/07 05:07:26;;;;;;;;;;;19.40;94.80;;;;;;4590224;19;19915;-25
2022/09/07 05:08:57;;;;;;;;;;;19.50;94.70;;;;;;4592997;19;19948;-27
2022/09/07 05:10:28;;;;;;;;;;;19.50;94.80;;;;;;4591084;19;19992;-26
2022/09/07 05:11:59;;;;;;;;;;;19.50;94.90;;;;;;4591088;19;19999;-26
2022/09/07 05:13:31;;;;;;;;;;;19.50;94.90;;;;;;4591087;19;19911;-24
2022/09/07 05:15:03;;;;;;;;;;;19.50;95.00;;;;;;4591572;19;19921;-27
2022/09/07 05:16:36;;;;;;;;;;;19.50;94.90;;;;;;4590969;19;19922;-27
2022/09/07 05:18:07;;;;;;;;;;;19.40;94.90;;;;;;4590704;19;19915;-29
2022/09/07 05:19:38;;;;;;;;;;;19.40;94.90;;;;;;4591048;19;19943;-25
2022/09/07 05:21:10;;;;;;;;;;;19.50;94.90;;;;;;4590562;19;19923;-28
2022/09/07 05:22:41;;;;;;;;;;;19.40;94.90;;;;;;4590956;19;19956;-25
2022/09/07 05:24:12;;;;;;;;;;;19.50;94.90;;;;;;4590777;19;20438;-25
2022/09/07 05:25:43;;;;;;;;;;;19.50;95.00;;;;;;4592805;19;19919;-26
2022/09/07 05:27:14;;;;;;;;;;;19.50;95.00;;;;;;4590688;19;19911;-26
2022/09/07 05:28:46;;;;;;;;;;;19.50;95.00;;;;;;4590322;19;19926;-25
2022/09/07 05:30:17;;;;;;;;;;;19.50;95.20;;;;;;4590516;19;19939;-24
2022/09/07 05:31:48;;;;;;;;;;;19.50;95.20;;;;;;4590561;19;19915;-26
2022/09/07 05:33:18;;;;;;;;;;;19.50;95.20;;;;;;4590671;19;20257;-28
2022/09/07 05:34:50;;;;;;;;;;;19.60;95.30;;;;;;4590780;19;19918;-26
2022/09/07 05:36:21;;;;;;;;;;;19.50;95.30;;;;;;4590631;19;20319;-24
2022/09/07 05:37:52;;;;;;;;;;;19.60;95.30;;;;;;4590159;19;19986;-26
2022/09/07 05:39:23;;;;;;;;;;;19.60;95.40;;;;;;4589485;19;19926;-28
2022/09/07 05:40:58;;;;;;;;;;;19.60;95.30;;;;;;4587904;19;20330;-25
2022/09/07 05:42:30;;;;;;;;;;;19.60;95.40;;;;;;4590960;19;19918;-27
2022/09/07 05:44:03;;;;;;;;;;;19.60;95.40;;;;;;4590641;19;19921;-24
2022/09/07 05:45:35;;;;;;;;;;;19.60;95.40;;;;;;4590250;19;19925;-22
2022/09/07 05:47:07;;;;;;;;;;;19.70;95.40;;;;;;4589473;19;19927;-27
2022/09/07 05:48:37;;;;;;;;;;;19.70;95.50;;;;;;4590594;19;19928;-26
2022/09/07 05:50:09;;;;;;;;;;;19.70;95.70;;;;;;4590452;19;19919;-23
2022/09/07 05:51:40;;;;;;;;;;;19.70;95.80;;;;;;4590725;19;20373;-23
2022/09/07 05:53:11;;;;;;;;;;;19.70;95.70;;;;;;4590713;19;20261;-24
2022/09/07 05:54:42;;;;;;;;;;;19.80;95.60;;;;;;4590410;19;20181;-26
2022/09/07 05:56:14;;;;;;;;;;;19.70;95.60;;;;;;4589232;19;19947;-28
2022/09/07 05:57:45;;;;;;;;;;;19.70;95.60;;;;;;4589075;19;19915;-25
2022/09/07 05:59:17;;;;;;;;;;;19.80;95.60;;;;;;4592016;19;19923;-30
2022/09/07 06:00:49;;;;;;;;;;;19.80;95.70;;;;;;4590089;19;19919;-23
2022/09/07 06:02:20;;;;;;;;;;;19.80;95.60;;;;;;4589041;19;19915;-27
2022/09/07 06:03:53;;;;;;;;;;;19.80;95.60;;;;;;4590039;19;19925;-28
2022/09/07 06:05:24;;;;;;;;;;;19.80;95.90;;;;;;4590066;19;19918;-25
2022/09/07 06:06:55;;;;;;;;;;;19.90;95.90;;;;;;4589763;19;20325;-25
2022/09/07 06:08:26;;;;;;;;;;;19.90;95.80;;;;;;4590015;19;20333;-26
2022/09/07 06:09:57;;;;;;;;;;;19.80;95.70;;;;;;4589739;19;19931;-28
2022/09/07 06:11:28;;;;;;;;;;;19.80;95.70;;;;;;4590188;19;19970;-28
2022/09/07 06:13:00;;;;;;;;;;;19.90;95.80;;;;;;4588676;19;20280;-27
2022/09/07 06:14:31;;;;;;;;;;;19.80;95.80;;;;;;4589412;19;19917;-31
2022/09/07 06:16:05;;;;;;;;;;;19.90;95.80;;;;;;4589771;19;19919;-26
2022/09/07 06:17:38;;;;;;;;;;;19.90;95.70;;;;;;4590082;19;20347;-31
2022/09/07 06:19:10;;;;;;;;;;;19.90;95.70;;;;;;4588708;19;19930;-27
2022/09/07 06:20:41;;;;;;;;;;;19.90;95.70;;;;;;4589473;19;19919;-24
2022/09/07 06:22:12;;;;;;;;;;;19.90;95.70;;;;;;4588919;19;19914;-26
2022/09/07 06:23:43;;;;;;;;;;;19.90;95.80;;;;;;4590188;19;19922;-25
2022/09/07 06:25:15;;;;;;;;;;;19.90;95.80;;;;;;4593489;19;19955;-28
2022/09/07 06:26:48;;;;;;;;;;;19.90;96.00;;;;;;4594593;19;19923;-29
2022/09/07 06:28:19;;;;;;;;;;;19.90;96.10;;;;;;4594658;19;19919;-25
2022/09/07 06:29:50;;;;;;;;;;;19.90;96.10;;;;;;4594338;19;19926;-25
2022/09/07 06:31:22;;;;;;;;;;;19.90;96.20;;;;;;4594599;19;19911;-25
2022/09/07 06:32:53;;;;;;;;;;;19.90;96.30;;;;;;4594497;19;19948;-25
2022/09/07 06:34:25;;;;;;;;;;;19.90;96.30;;;;;;4594853;19;20333;-26
2022/09/07 06:36:00;;;;;;;;;;;19.90;96.30;;;;;;4594102;19;19915;-28
2022/09/07 06:37:32;;;;;;;;;;;20.00;96.30;;;;;;4593677;19;19915;-24
2022/09/07 06:39:04;;;;;;;;;;;19.90;96.10;;;;;;4594071;19;19927;-26
2022/09/07 06:40:42;;;;;;;;;;;19.90;96.20;;;;;;4593896;19;19922;-28
2022/09/07 06:42:25;;;;;;;;;;;20.00;96.30;;;;;;4591456;19;20311;-26
2022/09/07 06:43:57;;;;;;;;;;;20.00;96.40;;;;;;4593758;19;19926;-29
2022/09/07 06:45:28;;;;;;;;;;;19.90;96.30;;;;;;4594366;19;19958;-27
2022/09/07 06:47:02;;;;;;;;;;;20.00;96.50;;;;;;4593990;19;19926;-27
2022/09/07 06:48:37;;;;;;;;;;;20.00;96.70;;;;;;4593816;19;19926;-27
2022/09/07 06:50:09;;;;;;;;;;;20.00;96.60;;;;;;4593738;19;19915;-29
2022/09/07 06:51:40;;;;;;;;;;;20.00;96.50;;;;;;4594107;19;19915;-28
2022/09/07 06:53:10;;;;;;;;;;;20.00;96.40;;;;;;4594023;19;19919;-26
2022/09/07 06:54:42;;;;;;;;;;;20.00;96.50;;;;;;4592676;19;19982;-27
2022/09/07 06:56:14;;;;;;;;;;;20.00;96.50;;;;;;4593428;19;19926;-26
2022/09/07 06:57:46;;;;;;;;;;;20.00;96.60;;;;;;4593373;19;19915;-28
2022/09/07 06:59:17;;;;;;;;;;;20.10;96.40;;;;;;4593945;19;20280;-27
2022/09/07 07:00:53;;;;;;;;;;;20.00;96.70;;;;;;4593587;19;19922;-24
2022/09/07 07:02:32;;;;;;;;;;;20.00;96.40;;;;;;4591068;19;19926;-26
2022/09/07 07:04:03;;;;;;;;;;;20.10;96.40;;;;;;4592442;19;19930;-35
2022/09/07 07:05:34;;;;;;;;;;;20.30;96.20;;;;;;4593953;19;20536;-28
2022/09/07 07:07:10;;;;;;;;;;;20.30;95.90;;;;;;4592329;19;19947;-25
2022/09/07 07:08:42;;;;;;;;;;;20.40;95.90;;;;;;4593077;19;20305;-29
2022/09/07 07:10:14;;;;;;;;;;;20.30;96.10;;;;;;4593228;19;19914;-23
2022/09/07 07:11:47;;;;;;;;;;;20.20;96.00;;;;;;4592995;19;19918;-28
2022/09/07 07:13:19;;;;;;;;;;;20.20;95.90;;;;;;4592484;19;19923;-27
2022/09/07 07:14:50;;;;;;;;;;;20.20;96.00;;;;;;4591957;19;19929;-25
2022/09/07 07:16:21;;;;;;;;;;;20.10;95.90;;;;;;4591127;19;19967;-27
2022/09/07 08:13:49;;;;;;;;;;;20.30;93.70;;;;;;4552521;19;19974;-26
2022/09/07 08:15:20;;;;;;;;;;;20.30;93.80;;;;;;4589728;19;19919;-26
2022/09/07 08:16:51;;;;;;;;;;;20.30;93.90;;;;;;4592133;19;19919;-27
2022/09/07 08:18:22;;;;;;;;;;;20.30;93.70;;;;;;4592309;19;20329;-28
2022/09/07 08:19:54;;;;;;;;;;;20.30;93.30;;;;;;4592093;19;19919;-26
2022/09/07 08:21:25;;;;;;;;;;;20.30;93.00;;;;;;4591654;19;19948;-26
2022/09/07 08:22:56;;;;;;;;;;;20.40;92.90;;;;;;4592258;19;19919;-26
2022/09/07 08:24:27;;;;;;;;;;;20.40;92.80;;;;;;4592004;19;19915;-26
2022/09/07 08:25:58;;;;;;;;;;;20.40;93.00;;;;;;4591855;19;19919;-27
2022/09/07 08:27:29;;;;;;;;;;;20.40;93.10;;;;;;4592054;19;19970;-26
2022/09/07 08:29:00;;;;;;;;;;;20.30;92.90;;;;;;4592173;19;19918;-25
2022/09/07 08:30:31;;;;;;;;;;;20.40;92.70;;;;;;4591918;19;19918;-26
2022/09/07 08:32:03;;;;;;;;;;;20.40;92.50;;;;;;4591991;19;19926;-26
2022/09/07 08:33:35;;;;;;;;;;;20.40;92.30;;;;;;4590545;19;19948;-28
2022/09/07 08:35:06;;;;;;;;;;;20.40;92.30;;;;;;4592634;19;19996;-26
2022/09/07 08:36:37;;;;;;;;;;;20.40;92.10;;;;;;4591560;19;19932;-27
2022/09/07 08:38:08;;;;;;;;;;;20.40;91.90;;;;;;4591881;19;19923;-28
2022/09/07 08:39:41;;;;;;;;;;;20.40;91.70;;;;;;4590586;19;20256;-25
2022/09/07 08:41:31;;;;;;;;;;;20.40;91.70;;;;;;4592223;19;19940;-27
2022/09/07 08:43:06;;;;;;;;;;;20.40;91.80;;;;;;4592826;19;19927;-25
2022/09/07 08:44:45;;;;;;;;;;;20.40;91.70;;;;;;4591051;19;20360;-28
2022/09/07 08:46:29;;;;;;;;;;;20.40;91.50;;;;;;4590826;19;19927;-26
2022/09/07 08:48:19;;;;;;;;;;;20.40;91.40;;;;;;4591981;19;19923;-25
2022/09/07 08:49:53;;;;;;;;;;;20.40;91.50;;;;;;4591503;19;20261;-25
2022/09/07 08:51:32;;;;;;;;;;;20.40;91.40;;;;;;4591746;19;19945;-26
2022/09/07 08:53:13;;;;;;;;;;;20.40;90.90;;;;;;4592106;19;20244;-25
2022/09/07 08:54:50;;;;;;;;;;;20.50;90.80;;;;;;4589078;19;19915;-25
2022/09/07 08:56:30;;;;;;;;;;;20.50;91.20;;;;;;4591057;19;20326;-25
2022/09/07 08:58:12;;;;;;;;;;;20.50;90.90;;;;;;4591123;19;19926;-24
2022/09/07 08:59:56;;;;;;;;;;;20.50;90.80;;;;;;4591292;19;19915;-26
2022/09/07 09:01:29;;;;;;;;;;;20.50;90.70;;;;;;4590626;19;19919;-25
2022/09/07 09:03:01;;;;;;;;;;;20.50;90.60;;;;;;4591055;19;19943;-27
2022/09/07 09:04:34;;;;;;;;;;;20.60;90.50;;;;;;4593655;19;19925;-25
2022/09/07 09:06:06;;;;;;;;;;;20.50;90.60;;;;;;4591271;19;19919;-25
2022/09/07 09:07:39;;;;;;;;;;;20.60;90.60;;;;;;4590875;19;19922;-24
2022/09/07 09:09:18;;;;;;;;;;;20.50;90.40;;;;;;4589889;19;19922;-24
2022/09/07 09:11:11;;;;;;;;;;;20.50;90.50;;;;;;4590799;19;19994;-24
2022/09/07 09:13:05;;;;;;;;;;;20.50;90.50;;;;;;4590559;19;19923;-26
2022/09/07 09:15:03;;;;;;;;;;;20.50;90.20;;;;;;4589782;19;19923;-26
2022/09/07 09:16:36;;;;;;;;;;;20.50;90.30;;;;;;4588843;19;19923;-26
2022/09/07 09:18:45;;;;;;;;;;;20.50;90.20;;;;;;4588188;19;19918;-27
2022/09/07 09:20:28;;;;;;;;;;;20.50;90.10;;;;;;4588407;19;19911;-27
2022/09/07 09:22:12;;;;;;;;;;;20.50;90.10;;;;;;4587460;19;19918;-25
2022/09/07 09:23:49;;;;;;;;;;;20.60;90.40;;;;;;4584367;19;19914;-25
2022/09/07 09:25:22;;;;;;;;;;;20.60;90.20;;;;;;4587815;19;19919;-24
2022/09/07 09:26:54;;;;;;;;;;;20.50;90.10;;;;;;4588702;19;19927;-29
2022/09/07 09:28:28;;;;;;;;;;;20.60;90.20;;;;;;4588561;19;19936;-24
2022/09/07 09:30:00;;;;;;;;;;;20.50;90.20;;;;;;4588511;19;19915;-27
2022/09/07 09:31:34;;;;;;;;;;;20.60;90.00;;;;;;4588581;19;19918;-25
2022/09/07 09:33:12;;;;;;;;;;;20.60;89.90;;;;;;4587514;19;19922;-26
2022/09/07 09:34:57;;;;;;;;;;;20.60;89.70;;;;;;4588296;19;20019;-26
2022/09/07 09:36:30;;;;;;;;;;;20.60;89.80;;;;;;4588131;19;19930;-26
2022/09/07 09:38:04;;;;;;;;;;;20.60;89.60;;;;;;4588386;19;19934;-26
2022/09/07 09:39:35;;;;;;;;;;;20.60;89.10;;;;;;4587945;19;19935;-27
2022/09/07 09:41:10;;;;;;;;;;;20.60;89.00;;;;;;4587058;19;20342;-26
2022/09/07 09:42:41;;;;;;;;;;;20.60;89.00;;;;;;4585873;19;19929;-28
2022/09/07 09:44:16;;;;;;;;;;;20.60;89.70;;;;;;4589300;19;20537;-26
2022/09/07 09:45:48;;;;;;;;;;;20.60;89.80;;;;;;4588378;19;20291;-25
2022/09/07 09:47:22;;;;;;;;;;;20.60;89.30;;;;;;4588236;19;20006;-25
2022/09/07 09:48:55;;;;;;;;;;;20.60;89.50;;;;;;4588076;19;19930;-24
2022/09/07 09:50:28;;;;;;;;;;;20.70;89.40;;;;;;4589056;19;19992;-24
2022/09/07 09:52:02;;;;;;;;;;;20.60;89.20;;;;;;4588457;19;20329;-27
2022/09/07 09:53:35;;;;;;;;;;;20.60;89.00;;;;;;4587642;19;19918;-25
2022/09/07 09:55:06;;;;;;;;;;;20.60;89.10;;;;;;4589481;19;20611;-25
2022/09/07 09:56:42;;;;;;;;;;;20.70;89.10;;;;;;4589488;19;19951;-25
2022/09/07 09:58:35;;;;;;;;;;;20.60;89.00;;;;;;4591405;19;20341;-27
2022/09/07 10:00:20;;;;;;;;;;;20.70;88.70;;;;;;4590427;19;20252;-24
2022/09/07 10:01:58;;;;;;;;;;;20.60;88.50;;;;;;4589160;19;19919;-25
2022/09/07 10:03:33;;;;;;;;;;;20.60;88.80;;;;;;4590386;19;19983;-24